Time;durP1;ratioP1;P1;durP2;ratioP2;P2;SDS_P1;SDS_P2;PMS_P1;PMS_P2;Temp;Humidity;BMP_temperature;BMP_pressure;BME280_temperature;BME280_humidity;BME280_pressure;Samples;Min_cycle;Max_cycle;Signal;HPM_P1;HPM_P2
2022/03/04 00:00:09;;;;;;;3.70;2.50;;;;;;;3.69;78.59;100284.16;1900664;74;21046;-61
2022/03/04 00:02:39;;;;;;;4.45;2.55;;;;;;;3.71;78.54;100281.08;1910535;75;21041;-62
2022/03/04 00:05:08;;;;;;;5.20;2.75;;;;;;;3.72;78.47;100280.17;1909757;75;21144;-61
2022/03/04 00:07:37;;;;;;;3.77;2.00;;;;;;;3.74;78.44;100278.39;1909450;75;21464;-62
2022/03/04 00:10:06;;;;;;;6.05;3.27;;;;;;;3.73;78.52;100279.30;1908367;74;21468;-61
2022/03/04 00:12:35;;;;;;;4.90;2.55;;;;;;;3.75;78.46;100287.94;1909967;75;20994;-61
2022/03/04 00:15:04;;;;;;;4.55;2.45;;;;;;;3.77;78.35;100288.77;1908348;74;21025;-62
2022/03/04 00:17:33;;;;;;;5.03;2.60;;;;;;;3.78;78.27;100285.29;1909656;75;21142;-62
2022/03/04 00:20:01;;;;;;;4.15;2.35;;;;;;;3.78;78.15;100290.50;1910306;75;21045;-62
2022/03/04 00:22:30;;;;;;;3.92;2.50;;;;;;;3.77;78.16;100282.26;1910012;75;21002;-63
2022/03/04 00:24:59;;;;;;;4.83;2.80;;;;;;;3.76;78.18;100292.27;1909876;75;21647;-61
2022/03/04 00:27:28;;;;;;;5.55;2.90;;;;;;;3.75;78.14;100287.94;1910427;75;21242;-64
2022/03/04 00:29:56;;;;;;;5.03;3.30;;;;;;;3.75;78.11;100287.94;1910164;75;21798;-61
2022/03/04 00:32:26;;;;;;;6.12;3.33;;;;;;;3.75;78.10;100297.51;1909585;74;21095;-62
2022/03/04 00:34:54;;;;;;;6.58;3.55;;;;;;;3.74;78.08;100297.92;1908862;74;21018;-62
2022/03/04 00:37:23;;;;;;;6.10;3.37;;;;;;;3.73;78.07;100306.64;1908453;74;21669;-61
2022/03/04 00:39:52;;;;;;;5.92;3.17;;;;;;;3.73;78.05;100305.34;1909214;75;21160;-61
2022/03/04 00:42:21;;;;;;;6.78;3.65;;;;;;;3.72;77.99;100306.21;1910832;73;20982;-62
2022/03/04 00:44:49;;;;;;;5.42;3.27;;;;;;;3.71;77.96;100312.33;1928480;74;21683;-62
2022/03/04 00:47:18;;;;;;;7.80;3.72;;;;;;;3.69;77.87;100310.20;1928168;74;21017;-63
2022/03/04 00:49:46;;;;;;;6.80;3.83;;;;;;;3.68;77.95;100311.06;1929325;74;21099;-63
2022/03/04 00:52:15;;;;;;;8.23;4.00;;;;;;;3.70;77.93;100315.80;1929747;74;21475;-63
2022/03/04 00:54:44;;;;;;;10.30;4.08;;;;;;;3.69;77.91;100319.30;1928619;74;21452;-62
2022/03/04 00:57:13;;;;;;;9.10;3.65;;;;;;;3.65;77.98;100320.22;1929443;74;21148;-62
2022/03/04 00:59:41;;;;;;;8.63;4.83;;;;;;;3.62;78.09;100319.84;1929209;74;20997;-62
2022/03/04 01:02:10;;;;;;;9.28;4.35;;;;;;;3.62;78.16;100327.66;1930010;74;20985;-61
2022/03/04 01:04:39;;;;;;;8.25;4.10;;;;;;;3.62;78.18;100325.50;1928002;74;21115;-62
2022/03/04 01:07:08;;;;;;;6.83;3.83;;;;;;;3.64;78.13;100335.45;1931590;74;21453;-61
2022/03/04 01:09:36;;;;;;;9.43;4.85;;;;;;;3.68;78.08;100338.41;1948335;74;21022;-60
2022/03/04 01:12:06;;;;;;;10.18;4.62;;;;;;;3.71;78.04;100348.78;1948413;74;21433;-61
2022/03/04 01:14:35;;;;;;;9.88;4.10;;;;;;;3.71;78.06;100355.30;1948388;74;21030;-61
2022/03/04 01:17:05;;;;;;;10.48;4.25;;;;;;;3.71;78.11;100363.10;1946990;74;21132;-56
2022/03/04 01:19:34;;;;;;;8.40;3.60;;;;;;;3.72;78.12;100364.80;1939104;74;21468;-57
2022/03/04 01:22:03;;;;;;;10.38;3.77;;;;;;;3.75;78.06;100371.27;1939104;74;21074;-58
2022/03/04 01:24:32;;;;;;;9.15;4.37;;;;;;;3.74;77.96;100379.95;1931996;74;21099;-59
2022/03/04 01:27:00;;;;;;;8.95;3.80;;;;;;;3.74;78.03;100381.71;1932885;74;21040;-58
2022/03/04 01:29:29;;;;;;;8.95;4.35;;;;;;;3.78;78.01;100389.46;1928217;74;21001;-57
2022/03/04 01:31:57;;;;;;;11.00;4.35;;;;;;;3.82;77.92;100389.81;1941385;74;21566;-58
2022/03/04 01:34:26;;;;;;;8.93;4.08;;;;;;;3.84;77.79;100391.95;1948268;74;21050;-58
2022/03/04 01:36:55;;;;;;;10.58;4.60;;;;;;;3.87;77.79;100393.63;1948277;74;21007;-59
2022/03/04 01:39:23;;;;;;;8.40;4.70;;;;;;;3.88;77.71;100402.33;1948245;74;21043;-60
2022/03/04 01:41:52;;;;;;;8.23;4.35;;;;;;;3.90;77.67;100410.97;1913049;75;21108;-60
2022/03/04 01:44:21;;;;;;;12.35;5.67;;;;;;;3.89;77.67;100411.84;1904087;75;21044;-58
2022/03/04 01:46:50;;;;;;;6.40;3.70;;;;;;;3.91;77.63;100419.19;1895354;76;21056;-58
2022/03/04 01:49:19;;;;;;;11.12;5.35;;;;;;;3.91;77.67;100408.77;1895559;76;21133;-58
2022/03/04 01:51:48;;;;;;;9.43;4.47;;;;;;;3.91;77.62;100429.61;1920415;74;21035;-58
2022/03/04 01:54:16;;;;;;;11.73;4.53;;;;;;;3.91;77.59;100424.39;1928504;74;21043;-58
2022/03/04 01:56:45;;;;;;;9.88;4.72;;;;;;;3.90;77.62;100431.81;1928540;74;21121;-57
2022/03/04 01:59:14;;;;;;;12.28;4.70;;;;;;;3.92;77.58;100429.59;1928476;74;21019;-59
2022/03/04 02:01:43;;;;;;;7.72;3.95;;;;;;;3.92;77.51;100433.49;1928029;74;21004;-58
2022/03/04 02:04:11;;;;;;;11.70;5.17;;;;;;;3.93;77.50;100429.13;1928080;74;21528;-58
2022/03/04 02:06:40;;;;;;;8.40;4.22;;;;;;;3.94;77.47;100431.72;1922572;75;21027;-58
2022/03/04 02:09:09;;;;;;;9.35;4.45;;;;;;;3.93;77.42;100435.23;1922625;75;21434;-59
2022/03/04 02:11:38;;;;;;;8.50;4.65;;;;;;;3.94;77.41;100426.96;1923014;74;20988;-59
2022/03/04 02:14:07;;;;;;;7.83;4.25;;;;;;;3.92;77.42;100436.55;1922605;75;21015;-58
2022/03/04 02:16:39;;;;;;;9.35;5.05;;;;;;;3.88;77.47;100434.44;1922591;75;21035;-59
2022/03/04 02:19:08;;;;;;;9.28;4.65;;;;;;;3.86;77.47;100442.27;1921857;74;21489;-59
2022/03/04 02:21:37;;;;;;;7.12;3.80;;;;;;;3.88;77.40;100443.55;1922543;74;21541;-58
2022/03/04 02:24:06;;;;;;;8.08;4.28;;;;;;;3.90;77.33;100447.44;1928334;74;21466;-57
2022/03/04 02:26:36;;;;;;;8.65;4.28;;;;;;;3.91;77.27;100451.33;1928313;74;21117;-57
2022/03/04 02:29:04;;;;;;;8.83;5.37;;;;;;;3.92;77.23;100456.09;1928115;74;21479;-58
2022/03/04 02:31:33;;;;;;;8.55;4.62;;;;;;;3.92;77.23;100461.30;1922805;75;21085;-57
2022/03/04 02:34:02;;;;;;;9.63;4.95;;;;;;;3.93;77.20;100463.88;1922675;75;21038;-57
2022/03/04 02:36:31;;;;;;;7.87;4.60;;;;;;;3.93;77.18;100460.39;1922706;75;21462;-58
2022/03/04 02:39:00;;;;;;;8.70;4.90;;;;;;;3.94;77.09;100468.19;1922724;74;21535;-58
2022/03/04 02:41:28;;;;;;;9.50;4.70;;;;;;;3.94;77.09;100464.73;1927306;74;21527;-57
2022/03/04 02:43:57;;;;;;;8.85;4.67;;;;;;;3.95;77.08;100462.56;1928441;74;21023;-57
2022/03/04 02:46:26;;;;;;;8.15;4.42;;;;;;;3.94;77.03;100462.12;1923588;74;21053;-59
2022/03/04 02:48:54;;;;;;;9.95;5.08;;;;;;;3.95;77.00;100466.47;1922736;74;21031;-58
2022/03/04 02:51:23;;;;;;;8.88;4.72;;;;;;;3.95;76.94;100466.02;1923162;74;21553;-60
2022/03/04 02:53:52;;;;;;;9.28;4.90;;;;;;;3.94;76.88;100462.12;1922759;74;21129;-56
2022/03/04 02:56:23;;;;;;;9.18;4.62;;;;;;;3.92;76.85;100468.66;1922725;74;21066;-57
2022/03/04 02:58:52;;;;;;;8.28;4.28;;;;;;;3.92;76.88;100471.72;1922841;75;21509;-57
2022/03/04 03:01:21;;;;;;;7.67;4.62;;;;;;;3.90;76.84;100471.73;1923094;74;21437;-57
2022/03/04 03:03:49;;;;;;;11.55;4.37;;;;;;;3.89;76.83;100467.39;1922737;74;21437;-57
2022/03/04 03:06:18;;;;;;;7.78;4.12;;;;;;;3.88;76.70;100459.18;1922698;75;21109;-58
2022/03/04 03:08:47;;;;;;;8.00;4.00;;;;;;;3.87;76.60;100471.77;1922804;74;21500;-58
2022/03/04 03:11:16;;;;;;;10.15;5.12;;;;;;;3.86;76.63;100475.28;1922990;74;21572;-56
2022/03/04 03:13:44;;;;;;;8.23;4.95;;;;;;;3.85;76.63;100477.03;1922831;75;21556;-57
2022/03/04 03:16:13;;;;;;;8.15;4.80;;;;;;;3.86;76.57;100480.48;1922700;75;21525;-55
2022/03/04 03:18:42;;;;;;;11.78;5.37;;;;;;;3.89;76.52;100484.78;1922711;74;21136;-56
2022/03/04 03:21:11;;;;;;;8.55;5.17;;;;;;;3.89;76.48;100483.02;1922709;73;21469;-56
2022/03/04 03:23:39;;;;;;;9.13;4.97;;;;;;;3.90;76.52;100485.21;1923292;73;21038;-57
2022/03/04 03:26:08;;;;;;;6.65;3.77;;;;;;;3.90;76.54;100491.72;1922679;74;21035;-57
2022/03/04 03:28:37;;;;;;;7.15;4.28;;;;;;;3.90;76.42;100486.52;1922808;75;21550;-58
2022/03/04 03:31:06;;;;;;;9.35;4.67;;;;;;;3.90;76.48;100496.93;1922643;74;21030;-58
2022/03/04 03:33:37;;;;;;;10.98;4.50;;;;;;;3.91;76.36;100498.22;1923084;74;21030;-59
2022/03/04 03:36:06;;;;;;;8.03;4.47;;;;;;;3.92;76.47;100493.86;1922909;75;21027;-59
2022/03/04 03:38:35;;;;;;;8.68;4.72;;;;;;;3.94;76.40;100511.63;1922768;74;21018;-59
2022/03/04 03:41:04;;;;;;;7.10;3.62;;;;;;;3.93;76.40;100517.70;1927214;74;21062;-58
2022/03/04 03:43:32;;;;;;;6.45;3.42;;;;;;;3.94;76.38;100521.59;1928440;74;21470;-60
2022/03/04 03:46:01;;;;;;;7.20;4.45;;;;;;;3.94;76.39;100528.55;1928496;74;21734;-59
2022/03/04 03:48:30;;;;;;;7.03;4.15;;;;;;;3.94;76.32;100533.77;1928470;74;21058;-59
2022/03/04 03:50:58;;;;;;;2.47;1.17;;;;;;;3.91;76.25;100519.48;1927923;74;21089;-59
2022/03/04 03:53:27;;;;;;;4.85;3.02;;;;;;;3.88;76.17;100529.52;1928546;74;21188;-58
2022/03/04 03:55:56;;;;;;;7.53;3.62;;;;;;;3.88;76.25;100534.72;1925157;74;21026;-60
2022/03/04 03:58:24;;;;;;;7.08;3.87;;;;;;;3.86;76.25;100530.83;1922539;74;21623;-57
2022/03/04 04:00:53;;;;;;;8.10;4.00;;;;;;;3.88;76.13;100533.87;1924731;74;21015;-57
2022/03/04 04:03:21;;;;;;;5.90;3.08;;;;;;;3.88;76.08;100542.53;1928669;74;21055;-59
2022/03/04 04:05:50;;;;;;;4.97;3.00;;;;;;;3.89;76.11;100534.27;1928633;74;21043;-58
2022/03/04 04:08:19;;;;;;;7.28;4.08;;;;;;;3.89;76.12;100538.17;1925448;74;21116;-58
2022/03/04 04:10:48;;;;;;;7.80;3.62;;;;;;;3.89;76.12;100543.39;1922652;75;21097;-60
2022/03/04 04:13:17;;;;;;;7.58;3.90;;;;;;;3.88;76.13;100545.59;1922804;74;21108;-59
2022/03/04 04:15:45;;;;;;;8.30;4.15;;;;;;;3.89;76.18;100546.84;1922639;73;21108;-58
2022/03/04 04:18:14;;;;;;;8.03;3.47;;;;;;;3.89;76.09;100548.14;1924792;73;21070;-59
2022/03/04 04:20:42;;;;;;;6.72;3.92;;;;;;;3.91;76.13;100554.64;1928561;74;21442;-57
2022/03/04 04:23:11;;;;;;;7.37;4.33;;;;;;;3.92;76.12;100545.95;1928486;74;21124;-59
2022/03/04 04:25:40;;;;;;;7.62;4.42;;;;;;;3.92;76.08;100539.45;1928394;74;21043;-58
2022/03/04 04:28:08;;;;;;;9.23;4.33;;;;;;;3.93;76.06;100545.05;1927481;74;21469;-58
2022/03/04 04:30:37;;;;;;;7.87;4.25;;;;;;;3.91;76.00;100538.59;1922678;75;21148;-58
2022/03/04 04:33:06;;;;;;;8.20;4.78;;;;;;;3.91;76.06;100542.92;1922880;74;21042;-60
2022/03/04 04:35:35;;;;;;;9.20;4.65;;;;;;;3.93;76.06;100548.96;1922663;75;21533;-60
2022/03/04 04:38:04;;;;;;;5.65;3.35;;;;;;;3.93;76.05;100556.78;1922589;74;21469;-59
2022/03/04 04:40:33;;;;;;;10.45;4.90;;;;;;;3.95;76.04;100558.95;1925743;74;21454;-57
2022/03/04 04:43:02;;;;;;;10.35;4.65;;;;;;;3.95;75.98;100558.95;1928699;74;21427;-57
2022/03/04 04:45:30;;;;;;;9.58;4.97;;;;;;;3.95;75.86;100568.06;1928608;74;21047;-58
2022/03/04 04:47:59;;;;;;;16.52;6.95;;;;;;;3.92;75.98;100573.31;1928431;74;21051;-58
2022/03/04 04:50:28;;;;;;;12.93;6.03;;;;;;;3.94;75.96;100576.75;1905506;74;21047;-58
2022/03/04 04:52:56;;;;;;;10.20;5.50;;;;;;;3.93;75.96;100598.45;1895556;76;21492;-58
2022/03/04 04:55:25;;;;;;;9.83;5.08;;;;;;;3.95;75.95;100584.55;1895583;76;21011;-58
2022/03/04 04:57:54;;;;;;;8.00;4.60;;;;;;;3.96;75.72;100582.80;1895593;76;21539;-59
2022/03/04 05:00:22;;;;;;;9.03;5.10;;;;;;;3.96;75.73;100590.61;1910772;74;21096;-60
2022/03/04 05:02:51;;;;;;;9.75;4.58;;;;;;;3.99;75.79;100591.88;1928311;74;21067;-60
2022/03/04 05:05:20;;;;;;;10.23;5.08;;;;;;;3.99;75.73;100599.25;1928433;74;21105;-60
2022/03/04 05:07:49;;;;;;;9.55;4.83;;;;;;;3.99;75.79;100607.06;1928514;74;21109;-59
2022/03/04 05:10:18;;;;;;;11.18;4.78;;;;;;;4.01;75.86;100610.95;1927853;74;21019;-60
2022/03/04 05:12:46;;;;;;;7.97;4.70;;;;;;;4.02;75.86;100612.24;1922668;75;21019;-60
2022/03/04 05:15:15;;;;;;;9.73;5.08;;;;;;;4.05;75.84;100615.23;1922751;73;21109;-60
2022/03/04 05:17:44;;;;;;;8.93;4.60;;;;;;;4.05;75.88;100622.59;1922601;75;21544;-60
2022/03/04 05:20:13;;;;;;;11.08;5.20;;;;;;;4.06;75.84;100619.58;1922784;74;21481;-59
2022/03/04 05:22:45;;;;;;;10.43;5.42;;;;;;;4.09;75.87;100623.42;1922756;74;21093;-60
2022/03/04 05:25:13;;;;;;;11.20;5.15;;;;;;;4.11;75.86;100623.41;1922627;74;21038;-60
2022/03/04 05:27:42;;;;;;;9.78;4.97;;;;;;;4.14;75.85;100620.77;1922641;74;21010;-60
2022/03/04 05:30:11;;;;;;;10.88;5.95;;;;;;;4.15;75.83;100620.74;1922665;75;21584;-61
2022/03/04 05:32:40;;;;;;;15.65;7.40;;;;;;;4.17;75.87;100621.58;1922860;74;21030;-60
2022/03/04 05:35:09;;;;;;;11.33;5.12;;;;;;;4.23;75.85;100621.48;1922701;75;21074;-60
2022/03/04 05:37:38;;;;;;;9.13;5.25;;;;;;;4.33;75.83;100626.55;1922714;75;21039;-59
2022/03/04 05:40:08;;;;;;;10.85;5.05;;;;;;;4.50;75.83;100631.50;1922605;75;21104;-59
2022/03/04 05:42:37;;;;;;;9.65;4.55;;;;;;;4.64;75.69;100633.00;1924969;74;21016;-59
2022/03/04 05:45:06;;;;;;;8.48;4.75;;;;;;;4.80;75.61;100634.07;1928534;74;21493;-58
2022/03/04 05:47:35;;;;;;;7.55;3.85;;;;;;;4.93;75.43;100630.36;1926165;73;21110;-58
2022/03/04 05:50:05;;;;;;;9.43;5.15;;;;;;;5.08;74.87;100624.45;1924983;74;21110;-56
2022/03/04 05:52:33;;;;;;;10.65;5.33;;;;;;;5.46;74.94;100634.60;1925548;74;21085;-56
2022/03/04 05:55:02;;;;;;;10.30;4.60;;;;;;;5.60;74.30;100638.66;1925359;74;21090;-56
2022/03/04 05:57:31;;;;;;;12.98;5.50;;;;;;;5.55;73.82;100646.17;1925687;74;20999;-56
2022/03/04 06:00:00;;;;;;;52.45;20.35;;;;;;;5.47;73.85;100644.17;1924794;74;21019;-57
2022/03/04 06:02:29;;;;;;;9.25;5.12;;;;;;;5.41;73.89;100643.39;1926209;74;21033;-60
2022/03/04 06:04:57;;;;;;;10.23;4.50;;;;;;;5.30;73.85;100646.66;1926245;74;21457;-58
2022/03/04 06:07:28;;;;;;;10.35;5.03;;;;;;;5.21;73.78;100654.66;1926247;74;21077;-60
2022/03/04 06:09:58;;;;;;;5.78;2.90;;;;;;;5.16;73.93;100657.79;1926420;74;21037;-59
2022/03/04 06:12:27;;;;;;;9.93;4.37;;;;;;;5.17;74.03;100656.91;1926135;74;21029;-60
2022/03/04 06:14:55;;;;;;;14.05;6.60;;;;;;;5.13;73.97;100672.22;1925356;74;21109;-57
2022/03/04 06:17:24;;;;;;;9.35;4.95;;;;;;;5.15;74.08;100675.66;1919820;75;21115;-60
2022/03/04 06:19:53;;;;;;;9.10;4.35;;;;;;;5.27;74.13;100679.79;1919684;75;21055;-60
2022/03/04 06:22:22;;;;;;;10.98;5.17;;;;;;;5.37;73.96;100679.59;1919838;75;21832;-60
2022/03/04 06:24:50;;;;;;;9.85;4.67;;;;;;;5.47;74.03;100676.81;1919945;75;21528;-57
2022/03/04 06:27:19;;;;;;;9.05;5.00;;;;;;;5.56;73.92;100683.17;1920059;74;21046;-57
2022/03/04 06:29:48;;;;;;;11.03;5.50;;;;;;;5.66;73.77;100683.39;1919980;74;21120;-59
2022/03/04 06:32:16;;;;;;;13.22;5.47;;;;;;;5.72;73.62;100683.28;1919820;75;21058;-60
2022/03/04 06:34:45;;;;;;;12.85;5.65;;;;;;;5.81;73.42;100683.55;1919831;75;21160;-59
2022/03/04 06:37:14;;;;;;;8.88;4.60;;;;;;;5.88;73.22;100682.97;1920132;74;21080;-59
2022/03/04 06:39:43;;;;;;;10.63;4.70;;;;;;;5.85;72.12;100690.44;1919824;75;21532;-58
2022/03/04 06:42:11;;;;;;;10.50;4.30;;;;;;;5.85;72.86;100702.65;1920016;74;21051;-58
2022/03/04 06:44:40;;;;;;;8.30;4.10;;;;;;;5.86;72.79;100695.20;1919851;75;21120;-58
2022/03/04 06:47:09;;;;;;;11.73;4.33;;;;;;;5.84;72.30;100690.46;1922288;73;21144;-57
2022/03/04 06:49:38;;;;;;;10.40;4.67;;;;;;;5.84;72.41;100707.45;1939279;74;21445;-57
2022/03/04 06:52:07;;;;;;;9.28;4.25;;;;;;;5.95;72.48;100705.47;1939195;73;21081;-56
2022/03/04 06:54:37;;;;;;;23.80;9.60;;;;;;;6.14;72.46;100702.94;1944735;73;21148;-57
2022/03/04 06:57:06;;;;;;;12.15;5.70;;;;;;;6.24;72.27;100711.44;1948338;73;21070;-58
2022/03/04 06:59:35;;;;;;;7.15;3.37;;;;;;;6.35;71.90;100713.82;1948486;74;21445;-57
2022/03/04 07:02:06;;;;;;;8.45;4.22;;;;;;;6.40;71.58;100721.55;1948578;74;21120;-58
2022/03/04 07:04:35;;;;;;;10.40;4.47;;;;;;;6.42;71.52;100731.09;1948099;74;21003;-57
2022/03/04 07:07:04;;;;;;;8.53;4.22;;;;;;;6.38;71.35;100728.11;1948418;74;21046;-58
2022/03/04 07:09:32;;;;;;;8.63;3.90;;;;;;;6.35;71.01;100727.75;1948403;74;21121;-56
2022/03/04 07:12:01;;;;;;;7.97;4.05;;;;;;;6.25;70.87;100737.98;1948460;74;21078;-57
2022/03/04 07:14:29;;;;;;;7.62;3.85;;;;;;;6.26;71.06;100742.78;1948354;74;21074;-57
2022/03/04 07:16:58;;;;;;;7.20;3.62;;;;;;;6.32;70.83;100745.26;1948438;74;21046;-57
2022/03/04 07:19:27;;;;;;;8.83;4.28;;;;;;;6.32;70.40;100737.41;1944202;73;21046;-57
2022/03/04 07:21:56;;;;;;;9.33;4.20;;;;;;;6.45;70.53;100745.86;1939138;74;21109;-57
2022/03/04 07:24:24;;;;;;;10.82;4.80;;;;;;;6.62;70.49;100742.44;1939171;73;21124;-57
2022/03/04 07:26:53;;;;;;;8.18;4.28;;;;;;;6.84;70.44;100747.15;1939632;74;21018;-58
2022/03/04 07:29:22;;;;;;;9.18;3.80;;;;;;;7.07;70.18;100758.40;1939241;74;21504;-57
2022/03/04 07:31:53;;;;;;;16.10;7.28;;;;;;;7.23;69.98;100759.75;1939151;74;21062;-58
2022/03/04 07:34:25;;;;;;;29.48;12.07;;;;;;;7.40;69.63;100754.53;1939168;73;21038;-59
2022/03/04 07:36:54;;;;;;;8.15;4.08;;;;;;;7.63;69.28;100761.78;1939771;74;21514;-58
2022/03/04 07:39:22;;;;;;;8.33;4.10;;;;;;;7.81;68.38;100763.91;1939047;74;21103;-60
2022/03/04 07:41:51;;;;;;;10.45;5.35;;;;;;;7.96;68.43;100767.87;1939254;74;21049;-59
2022/03/04 07:44:21;;;;;;;8.50;3.92;;;;;;;8.05;68.12;100758.43;1938050;73;21102;-60
2022/03/04 07:46:50;;;;;;;9.23;4.08;;;;;;;8.02;67.21;100751.98;1939717;74;21477;-58
2022/03/04 07:49:19;;;;;;;14.25;6.33;;;;;;;8.11;67.16;100753.46;1918072;73;21517;-58
2022/03/04 07:51:48;;;;;;;13.03;4.78;;;;;;;8.27;66.76;100753.43;1910371;75;21411;-58
2022/03/04 07:54:18;;;;;;;9.65;4.15;;;;;;;8.44;66.29;100743.77;1910128;75;21112;-58
2022/03/04 07:56:47;;;;;;;10.18;5.37;;;;;;;8.72;65.47;100738.98;1910209;75;21070;-57
2022/03/04 07:59:15;;;;;;;9.90;4.40;;;;;;;9.01;65.00;100735.90;1910185;74;21012;-57
2022/03/04 08:01:44;;;;;;;7.55;4.25;;;;;;;9.19;63.78;100732.66;1890989;75;21145;-57
2022/03/04 08:04:13;;;;;;;7.65;4.00;;;;;;;9.24;63.75;100743.88;1886798;75;21440;-57
2022/03/04 08:06:42;;;;;;;6.92;3.80;;;;;;;9.41;63.27;100743.31;1919757;75;21021;-56
2022/03/04 08:09:10;;;;;;;5.95;3.17;;;;;;;10.02;62.54;100737.64;1919996;75;21437;-56
2022/03/04 08:11:39;;;;;;;4.80;2.72;;;;;;;10.36;61.13;100728.50;1919856;75;21103;-58
2022/03/04 08:14:08;;;;;;;7.47;3.77;;;;;;;11.05;60.38;100732.83;1919852;75;21034;-60
2022/03/04 08:16:37;;;;;;;7.40;3.12;;;;;;;11.92;59.55;100739.27;1919671;75;21575;-60
2022/03/04 08:19:06;;;;;;;4.65;3.10;;;;;;;13.22;56.86;100735.33;1919816;75;21483;-59
2022/03/04 08:21:34;;;;;;;6.15;3.52;;;;;;;14.32;56.02;100734.50;1919831;75;21457;-58
2022/03/04 08:24:03;;;;;;;6.72;3.83;;;;;;;15.03;54.13;100740.67;1919794;75;21030;-58
2022/03/04 08:26:32;;;;;;;5.72;3.25;;;;;;;15.28;53.23;100738.79;1919767;75;21120;-57
2022/03/04 08:29:02;;;;;;;6.95;3.35;;;;;;;14.87;51.98;100752.65;1919876;75;21478;-57
2022/03/04 08:31:30;;;;;;;5.83;2.47;;;;;;;14.59;52.56;100750.22;1919753;75;21128;-59
2022/03/04 08:33:59;;;;;;;9.63;5.03;;;;;;;14.89;50.03;100741.48;1919874;75;21049;-58
2022/03/04 08:36:28;;;;;;;6.90;3.80;;;;;;;15.82;48.75;100745.77;1919998;75;21029;-58
2022/03/04 08:38:57;;;;;;;6.20;2.80;;;;;;;16.48;46.80;100750.08;1919882;75;21080;-58
2022/03/04 08:41:25;;;;;;;5.50;3.45;;;;;;;17.05;46.80;100753.58;1919896;75;21006;-57
2022/03/04 08:43:54;;;;;;;6.42;2.85;;;;;;;17.48;45.70;100741.38;1919623;74;21476;-58
2022/03/04 08:46:23;;;;;;;5.15;2.83;;;;;;;17.84;44.14;100747.32;1919848;75;21042;-58
2022/03/04 08:48:52;;;;;;;5.42;2.60;;;;;;;18.16;43.30;100750.05;1924118;74;21085;-58
2022/03/04 08:51:27;;;;;;;7.03;3.33;;;;;;;18.58;42.87;100737.28;1939319;74;21540;-58
2022/03/04 08:53:52;;;;;;;6.17;3.72;;;;;;;19.01;41.11;100742.14;1933985;74;21044;-58
2022/03/04 08:56:22;;;;;;;4.37;2.42;;;;;;;18.60;41.83;100737.52;1932510;74;21037;-57
2022/03/04 08:58:51;;;;;;;5.47;2.75;;;;;;;19.04;40.67;100744.59;1932917;74;21053;-58
2022/03/04 09:01:19;;;;;;;5.97;2.72;;;;;;;18.73;40.94;100752.64;1932972;74;21444;-58
2022/03/04 09:03:48;;;;;;;4.80;2.20;;;;;;;18.65;39.96;100735.87;1933130;74;21388;-58
2022/03/04 09:06:17;;;;;;;6.28;2.75;;;;;;;18.63;39.93;100745.80;1933058;74;21502;-61
2022/03/04 09:08:46;;;;;;;10.75;2.98;;;;;;;18.87;39.76;100752.03;1932930;74;21091;-60
2022/03/04 09:11:14;;;;;;;4.60;2.47;;;;;;;19.25;39.41;100751.45;1932940;74;21100;-57
2022/03/04 09:13:44;;;;;;;4.42;2.17;;;;;;;18.77;39.42;100756.29;1932782;74;21017;-57
2022/03/04 09:16:12;;;;;;;5.92;2.98;;;;;;;18.43;40.04;100756.08;1929003;74;21460;-57
2022/03/04 09:18:41;;;;;;;5.70;3.10;;;;;;;18.51;39.44;100753.70;1881072;76;21011;-60
2022/03/04 09:21:10;;;;;;;4.75;2.83;;;;;;;18.93;39.18;100752.05;1893265;74;21535;-60
2022/03/04 09:23:40;;;;;;;4.70;2.50;;;;;;;18.32;38.71;100750.18;1912598;74;21179;-59
2022/03/04 09:26:09;;;;;;;3.72;2.05;;;;;;;18.49;38.19;100744.97;1921863;74;21052;-59
2022/03/04 09:28:37;;;;;;;3.72;2.58;;;;;;;17.42;39.22;100751.12;1928495;74;21092;-62
2022/03/04 09:31:06;;;;;;;4.15;2.60;;;;;;;17.70;39.06;100755.41;1928112;74;21037;-60
2022/03/04 09:33:35;;;;;;;4.75;2.40;;;;;;;17.56;38.50;100761.20;1929975;74;20998;-60
2022/03/04 09:36:05;;;;;;;4.70;2.30;;;;;;;17.74;38.82;100757.77;1927233;74;21103;-61
2022/03/04 09:38:34;;;;;;;5.25;2.27;;;;;;;17.46;38.50;100757.94;1927018;74;21043;-59
2022/03/04 09:41:03;;;;;;;6.22;2.65;;;;;;;16.87;39.25;100768.44;1927062;74;21037;-56
2022/03/04 09:43:33;;;;;;;4.20;2.35;;;;;;;17.24;39.05;100762.02;1927280;74;21477;-58
2022/03/04 09:46:02;;;;;;;5.87;2.92;;;;;;;17.68;38.85;100770.15;1927069;74;21476;-59
2022/03/04 09:48:33;;;;;;;7.05;3.40;;;;;;;17.30;39.28;100748.78;1927201;74;21468;-60
2022/03/04 09:51:03;;;;;;;5.20;2.30;;;;;;;16.46;39.82;100766.61;1929421;74;21061;-57
2022/03/04 09:53:31;;;;;;;5.90;2.80;;;;;;;16.20;40.23;100777.55;1929699;74;21175;-58
2022/03/04 09:56:00;;;;;;;4.53;2.77;;;;;;;15.53;40.79;100767.84;1928612;74;20990;-57
2022/03/04 09:58:30;;;;;;;4.92;2.80;;;;;;;14.78;41.65;100769.92;1930568;74;21549;-59
2022/03/04 10:00:59;;;;;;;5.10;2.72;;;;;;;14.01;41.97;100785.13;1932857;74;21057;-58
2022/03/04 10:03:33;;;;;;;7.50;2.35;;;;;;;13.35;43.32;100780.56;1932962;74;21056;-59
2022/03/04 10:06:04;;;;;;;6.58;3.08;;;;;;;12.81;44.26;100791.93;1933029;74;21099;-58
2022/03/04 10:09:00;;;;;;;6.95;2.80;;;;;;;12.18;44.78;100801.44;1932963;74;21025;-59
2022/03/04 10:11:34;;;;;;;8.10;2.80;;;;;;;11.71;45.80;100809.60;1898893;75;21573;-60
2022/03/04 10:14:09;;;;;;;4.72;2.17;;;;;;;11.36;46.62;100811.50;1902771;75;21067;-57
2022/03/04 10:16:40;;;;;;;5.50;2.92;;;;;;;11.25;47.18;100802.30;1914958;75;21124;-58
2022/03/04 10:19:14;;;;;;;6.03;2.90;;;;;;;11.30;47.30;100802.50;1916027;75;21151;-58
2022/03/04 10:21:51;;;;;;;5.12;2.62;;;;;;;11.90;47.00;100803.98;1914653;75;21039;-59
2022/03/04 10:24:29;;;;;;;5.20;2.62;;;;;;;12.35;46.46;100804.16;1914645;75;21517;-56
2022/03/04 10:27:04;;;;;;;6.47;3.20;;;;;;;12.57;45.84;100799.22;1913869;74;21465;-57
2022/03/04 10:29:36;;;;;;;4.67;2.15;;;;;;;12.67;45.82;100799.64;1914714;74;21101;-56
2022/03/04 10:32:19;;;;;;;6.10;2.22;;;;;;;13.32;45.42;100794.33;1920604;74;21496;-57
2022/03/04 10:34:58;;;;;;;8.38;2.70;;;;;;;14.41;44.20;100786.97;1907951;74;21556;-60
2022/03/04 10:37:30;;;;;;;5.40;2.77;;;;;;;14.45;43.54;100797.78;1918146;74;21454;-58
2022/03/04 10:40:03;;;;;;;4.97;2.62;;;;;;;14.08;43.85;100799.75;1919199;74;21105;-57
2022/03/04 10:42:44;;;;;;;5.53;2.75;;;;;;;13.55;44.28;100794.11;1917660;74;21419;-60
2022/03/04 10:45:18;;;;;;;5.45;3.05;;;;;;;13.10;45.20;100799.78;1910577;74;21036;-57
2022/03/04 10:47:54;;;;;;;5.25;2.67;;;;;;;12.79;45.52;100803.04;1906147;74;21117;-56
2022/03/04 10:50:35;;;;;;;6.55;3.00;;;;;;;12.45;46.02;100810.34;1913828;74;21090;-55
2022/03/04 10:53:07;;;;;;;8.73;3.27;;;;;;;12.45;46.21;100812.98;1918704;73;21011;-56
2022/03/04 10:55:39;;;;;;;5.78;2.45;;;;;;;12.39;46.52;100809.31;1924408;74;21501;-55
2022/03/04 10:58:23;;;;;;;6.03;3.12;;;;;;;12.14;46.70;100797.23;1916621;74;21019;-56
2022/03/04 11:00:52;;;;;;;;;;;;;;;11.78;47.12;100809.30;1917237;74;21784;-57
2022/03/04 11:03:27;;;;;;;6.53;2.42;;;;;;;11.48;47.40;100812.75;1908873;74;20174;-60
2022/03/04 11:05:58;;;;;;;4.20;2.08;;;;;;;11.51;48.11;100811.32;1884029;75;21509;-58
2022/03/04 11:08:27;;;;;;;10.75;2.70;;;;;;;11.89;47.13;100808.81;1882868;75;21000;-57
2022/03/04 11:10:58;;;;;;;5.40;3.10;;;;;;;11.90;46.97;100806.61;1905815;75;21047;-57
2022/03/04 11:13:29;;;;;;;7.22;2.60;;;;;;;11.81;47.09;100806.98;1907542;74;21646;-63
2022/03/04 11:15:57;;;;;;;7.80;2.95;;;;;;;11.67;47.30;100814.62;1941937;73;21089;-59
2022/03/04 11:18:27;;;;;;;5.55;2.80;;;;;;;11.50;47.52;100820.14;1914725;75;21133;-60
2022/03/04 11:20:59;;;;;;;7.65;3.25;;;;;;;11.37;47.72;100810.55;1913538;75;21005;-61
2022/03/04 11:23:30;;;;;;;6.58;3.02;;;;;;;11.38;48.08;100814.92;1922346;73;21551;-63
2022/03/04 11:26:01;;;;;;;5.50;3.00;;;;;;;11.23;48.39;100811.58;1914682;75;21074;-66
2022/03/04 11:28:51;;;;;;;4.20;2.22;;;;;;;10.99;48.55;100814.73;1914870;75;21109;-66
2022/03/04 11:31:23;;;;;;;10.93;2.92;;;;;;;11.16;48.50;100820.21;1917494;75;21027;-63
2022/03/04 11:33:58;;;;;;;7.92;2.52;;;;;;;11.28;47.93;100815.36;1882111;76;21426;-62
2022/03/04 11:36:29;;;;;;;6.20;2.30;;;;;;;11.25;48.01;100798.34;1890261;75;21007;-64
2022/03/04 11:39:01;;;;;;;4.37;2.25;;;;;;;10.97;47.79;100808.67;1914850;75;21144;-64